Hauptseite
METAR-TAF:

METAR-TAF

Flughäfen :

Butler, Pennsylvania, Vereinigte Staaten

Breite: 40-47N, Länge: 079-57W, Höhe: 380 m

Beobachtung

Neuester Wetterbericht von vor 1 Stunde und 7 Minuten, um 00:56 UTC
Wind 4 kt aus Südwest
Temperatur -2°C
Luftfeuchtigkeit 74%
Luftdruck 1022 hPa
Sichtweite: 16.1 km
Geschlossene Wolkendecke in der Höhe von 3600 ft

METAR: KBTP 160056Z AUTO 23004KT 10SM OVC036 M02/M06 A3017 RMK AO2 SLP238 T10221061 FZRANO

Zeit: 21:03 (02:03 UTC)


TAF: fehlend

Wetterbeobachtungen und Prognosen von mehr als 4000 Flughäfen (METAR und TAF Bericht).

Die verfügbaren Stationen werden durch gelbe und rote Markierungen auf der Karte dargestellt.

Führen Sie die Maus auf sie, um den Namen der Station zu sehen.

Darauf klicken, um die Beobachtung von Wetterbeobachtungen und Prognosen zu sehen.

Um die Karte zu ändern : klicken Sie auf den grünen Tasten mit einem schwarzen Kreuz Zum Vergrößern, auf den grünen Button mit einem Gedankenstrich zu verkleinern, oder auf die grünen Pfeile für benachbarte Karten.


METAR-TAF: